Time;durP1;ratioP1;P1;durP2;ratioP2;P2;SDS_P1;SDS_P2;PMS_P1;PMS_P2;Temp;Humidity;BMP_temperature;BMP_pressure;BME280_temperature;BME280_humidity;BME280_pressure;Samples;Min_cycle;Max_cycle;Signal;HPM_P1;HPM_P2
2022/01/29 06:00:07;;;;;;;4.70;3.50;;;5.80;97.20;;;;;;1706893;29;20186;-81
2022/01/29 06:00:58;;;;;;;3.95;3.33;;;5.80;97.20;;;;;;1707425;28;20694;-81
2022/01/29 06:01:50;;;;;;;3.45;3.00;;;5.80;97.20;;;;;;1703667;29;20299;-81
2022/01/29 06:02:41;;;;;;;3.40;2.90;;;5.80;97.20;;;;;;1700904;29;20210;-81
2022/01/29 06:03:33;;;;;;;4.53;3.20;;;5.80;97.20;;;;;;1707502;29;20194;-81
2022/01/29 06:04:23;;;;;;;4.88;3.20;;;5.90;97.20;;;;;;1707856;28;20450;-81
2022/01/29 06:05:15;;;;;;;7.00;3.30;;;5.90;97.20;;;;;;1707788;29;20205;-81
2022/01/29 06:06:06;;;;;;;3.60;3.20;;;5.90;97.20;;;;;;1707983;29;20680;-81
2022/01/29 06:06:57;;;;;;;3.90;3.03;;;5.90;97.20;;;;;;1707984;29;20793;-82
2022/01/29 06:07:48;;;;;;;4.47;3.30;;;5.90;97.20;;;;;;1707538;29;20241;-81
2022/01/29 06:08:40;;;;;;;3.80;3.20;;;5.90;97.20;;;;;;1707716;29;20221;-82
2022/01/29 06:09:31;;;;;;;3.97;3.65;;;5.90;97.20;;;;;;1708112;29;20669;-81
2022/01/29 06:10:22;;;;;;;3.60;2.87;;;5.90;97.20;;;;;;1708019;28;20662;-81
2022/01/29 06:11:14;;;;;;;3.75;2.97;;;5.90;97.20;;;;;;1708120;28;20245;-81
2022/01/29 06:12:05;;;;;;;4.72;3.28;;;5.90;97.20;;;;;;1708013;29;20258;-81
2022/01/29 06:13:01;;;;;;;4.13;3.70;;;5.90;97.20;;;;;;1707944;28;20202;-81
2022/01/29 06:13:52;;;;;;;4.40;2.92;;;5.90;97.20;;;;;;1707117;29;20244;-81
2022/01/29 06:14:44;;;;;;;7.70;3.07;;;5.90;97.20;;;;;;1707671;29;20237;-81
2022/01/29 06:15:39;;;;;;;3.92;3.25;;;5.90;97.20;;;;;;1707996;29;20624;-81
2022/01/29 06:16:31;;;;;;;6.30;4.25;;;6.00;97.20;;;;;;1708171;29;20594;-81
2022/01/29 06:17:21;;;;;;;6.88;5.97;;;5.90;97.20;;;;;;1708232;29;20209;-81
2022/01/29 06:18:18;;;;;;;6.63;5.90;;;5.90;97.20;;;;;;1707698;29;20201;-81
2022/01/29 06:19:09;;;;;;;6.00;4.80;;;5.90;97.20;;;;;;1707702;28;20293;-81
2022/01/29 06:20:00;;;;;;;6.77;4.97;;;5.80;97.20;;;;;;1707905;29;20253;-82
2022/01/29 06:20:53;;;;;;;8.75;6.50;;;5.80;97.20;;;;;;1708306;29;20582;-81
2022/01/29 06:21:45;;;;;;;8.20;6.38;;;5.80;97.20;;;;;;1708212;29;20202;-81
2022/01/29 06:22:36;;;;;;;8.20;5.72;;;5.80;97.20;;;;;;1707933;29;20241;-81
2022/01/29 06:23:31;;;;;;;8.93;5.60;;;5.80;97.20;;;;;;1708209;29;20261;-81
2022/01/29 06:24:22;;;;;;;7.45;4.80;;;5.80;97.20;;;;;;1707958;28;20213;-81
2022/01/29 06:25:14;;;;;;;5.47;4.10;;;5.80;97.20;;;;;;1708019;28;20217;-81
2022/01/29 06:26:07;;;;;;;4.75;4.20;;;5.80;97.20;;;;;;1708195;29;20226;-81
2022/01/29 06:26:59;;;;;;;3.60;3.15;;;5.80;97.20;;;;;;1708211;29;20207;-81
2022/01/29 06:27:50;;;;;;;4.20;3.80;;;5.80;97.20;;;;;;1707619;29;20214;-81
2022/01/29 06:28:42;;;;;;;4.17;3.60;;;5.80;97.20;;;;;;1707868;29;20209;-81
2022/01/29 06:29:33;;;;;;;3.38;3.00;;;5.80;97.20;;;;;;1709100;28;20450;-81
2022/01/29 06:30:25;;;;;;;3.33;2.90;;;5.80;97.20;;;;;;1710769;29;20209;-81
2022/01/29 06:31:18;;;;;;;4.13;3.30;;;5.80;97.20;;;;;;1710813;29;20523;-81
2022/01/29 06:32:09;;;;;;;5.25;3.55;;;5.80;97.20;;;;;;1708495;29;20202;-81
2022/01/29 06:33:06;;;;;;;3.88;3.28;;;5.80;97.20;;;;;;1708388;29;20693;-81
2022/01/29 06:33:57;;;;;;;4.75;3.85;;;5.90;97.20;;;;;;1708572;29;20199;-81
2022/01/29 06:34:48;;;;;;;4.75;3.90;;;5.90;97.20;;;;;;1707895;28;20285;-81
2022/01/29 06:35:42;;;;;;;3.80;3.40;;;6.00;97.20;;;;;;1708347;29;20202;-81
2022/01/29 06:36:33;;;;;;;3.53;3.20;;;6.00;97.20;;;;;;1708256;29;20207;-81
2022/01/29 06:37:24;;;;;;;4.70;4.30;;;6.00;97.20;;;;;;1708349;29;20212;-81
2022/01/29 06:38:15;;;;;;;4.70;4.30;;;6.00;97.20;;;;;;1708007;29;20590;-81
2022/01/29 06:39:07;;;;;;;4.10;3.20;;;6.00;97.20;;;;;;1708225;29;20286;-81
2022/01/29 06:39:58;;;;;;;4.82;4.13;;;6.00;97.20;;;;;;1708220;28;20449;-81
2022/01/29 06:40:50;;;;;;;4.30;3.83;;;6.00;97.20;;;;;;1708038;29;20199;-81
2022/01/29 06:41:40;;;;;;;5.43;4.00;;;6.00;97.20;;;;;;1708114;29;20586;-81
2022/01/29 06:42:32;;;;;;;4.50;4.10;;;6.00;97.20;;;;;;1708110;29;20574;-81
2022/01/29 06:43:23;;;;;;;4.63;4.07;;;6.00;97.20;;;;;;1707965;29;20234;-81
2022/01/29 06:44:15;;;;;;;4.90;4.20;;;6.00;97.20;;;;;;1708252;29;20205;-81
2022/01/29 06:45:06;;;;;;;4.60;4.20;;;6.00;97.20;;;;;;1708064;28;20677;-81
2022/01/29 06:45:58;;;;;;;4.22;3.83;;;6.00;97.20;;;;;;1708270;29;20202;-81
2022/01/29 06:46:50;;;;;;;4.53;4.07;;;6.00;97.20;;;;;;1708084;29;20226;-81
2022/01/29 06:47:41;;;;;;;4.90;4.20;;;6.00;97.20;;;;;;1707737;29;20226;-81
2022/01/29 06:48:32;;;;;;;6.93;4.10;;;6.00;97.20;;;;;;1708020;29;20321;-81
2022/01/29 06:49:24;;;;;;;6.27;4.60;;;6.00;97.20;;;;;;1708093;29;20202;-81
2022/01/29 06:50:16;;;;;;;4.75;4.25;;;6.00;97.20;;;;;;1708332;29;20250;-81
2022/01/29 06:51:06;;;;;;;5.05;4.55;;;6.00;97.20;;;;;;1707581;29;20245;-81
2022/01/29 06:51:58;;;;;;;4.90;4.20;;;6.00;97.20;;;;;;1708179;29;20214;-81
2022/01/29 06:52:49;;;;;;;4.50;3.70;;;6.00;97.20;;;;;;1707892;29;20221;-81
2022/01/29 06:53:41;;;;;;;4.57;4.18;;;6.00;97.20;;;;;;1706860;29;20198;-81
2022/01/29 06:54:31;;;;;;;6.00;4.30;;;6.00;97.20;;;;;;1707789;29;20230;-81
2022/01/29 06:55:24;;;;;;;5.00;4.13;;;6.00;97.20;;;;;;1708059;28;20202;-81
2022/01/29 06:56:14;;;;;;;5.28;4.20;;;6.00;97.20;;;;;;1708082;29;20236;-81
2022/01/29 06:57:07;;;;;;;5.90;4.40;;;6.00;97.20;;;;;;1707904;29;20202;-81
2022/01/29 06:57:57;;;;;;;4.13;3.72;;;6.00;97.20;;;;;;1707479;29;20242;-81
2022/01/29 06:58:49;;;;;;;3.77;3.20;;;6.10;97.20;;;;;;1707794;29;20313;-81
2022/01/29 06:59:40;;;;;;;5.10;3.80;;;6.10;97.20;;;;;;1707961;29;20206;-81
2022/01/29 07:00:31;;;;;;;4.67;4.07;;;6.10;97.20;;;;;;1707882;29;20206;-81
2022/01/29 07:01:22;;;;;;;4.85;4.43;;;6.10;97.20;;;;;;1708043;29;20210;-81
2022/01/29 07:02:15;;;;;;;4.37;3.50;;;6.10;97.20;;;;;;1707940;29;20209;-81
2022/01/29 07:03:06;;;;;;;4.05;3.65;;;6.10;97.20;;;;;;1708032;29;20249;-81
2022/01/29 07:03:58;;;;;;;5.57;4.17;;;6.10;97.20;;;;;;1707888;28;20206;-81
2022/01/29 07:04:48;;;;;;;6.82;3.58;;;6.10;97.20;;;;;;1707878;29;20293;-81
2022/01/29 07:05:40;;;;;;;5.53;4.13;;;6.10;97.20;;;;;;1707904;29;20198;-81
2022/01/29 07:06:31;;;;;;;4.18;3.75;;;6.10;97.20;;;;;;1707776;29;20253;-81
2022/01/29 07:07:23;;;;;;;5.70;4.17;;;6.10;97.20;;;;;;1707435;29;20198;-81
2022/01/29 07:08:13;;;;;;;3.85;3.50;;;6.10;97.20;;;;;;1707428;29;20249;-81
2022/01/29 07:09:05;;;;;;;4.50;4.10;;;6.10;97.20;;;;;;1707534;29;20209;-81
2022/01/29 07:09:56;;;;;;;4.28;3.88;;;6.10;97.20;;;;;;1707839;29;20237;-81
2022/01/29 07:10:49;;;;;;;4.22;3.83;;;6.10;97.20;;;;;;1707760;29;20297;-81
2022/01/29 07:11:42;;;;;;;4.78;4.15;;;6.20;97.20;;;;;;1707823;29;20669;-81
2022/01/29 07:12:34;;;;;;;7.47;3.88;;;6.20;97.20;;;;;;1707560;29;20225;-80
2022/01/29 07:13:25;;;;;;;4.57;4.00;;;6.20;97.20;;;;;;1707840;29;20237;-81
2022/01/29 07:14:17;;;;;;;4.77;4.07;;;6.20;97.20;;;;;;1707460;29;20210;-81
2022/01/29 07:15:10;;;;;;;6.43;4.00;;;6.20;97.20;;;;;;1707665;29;20480;-80
2022/01/29 07:16:01;;;;;;;5.50;4.00;;;6.20;97.20;;;;;;1707706;29;20203;-80
2022/01/29 07:16:53;;;;;;;3.93;3.53;;;6.20;97.20;;;;;;1707650;29;20277;-81
2022/01/29 07:17:45;;;;;;;4.93;4.07;;;6.20;97.20;;;;;;1707532;29;20210;-81
2022/01/29 07:18:36;;;;;;;4.25;3.85;;;6.20;97.20;;;;;;1707545;29;20203;-80
2022/01/29 07:19:27;;;;;;;4.45;3.97;;;6.20;97.20;;;;;;1707948;29;20209;-81
2022/01/29 07:20:19;;;;;;;5.57;4.30;;;6.20;97.20;;;;;;1707666;28;20201;-80
2022/01/29 07:21:10;;;;;;;4.97;4.57;;;6.20;97.20;;;;;;1707795;29;20562;-81
2022/01/29 07:22:01;;;;;;;5.40;4.10;;;6.10;97.20;;;;;;1707552;29;20241;-81
2022/01/29 07:22:52;;;;;;;4.85;4.00;;;6.10;97.20;;;;;;1707224;29;20205;-81
2022/01/29 07:23:44;;;;;;;4.10;3.70;;;6.10;97.20;;;;;;1707422;28;20676;-80
2022/01/29 07:24:35;;;;;;;6.70;4.40;;;6.10;97.20;;;;;;1707740;28;20216;-80
2022/01/29 07:25:27;;;;;;;5.85;3.30;;;6.10;97.20;;;;;;1707585;29;20212;-81
2022/01/29 07:26:17;;;;;;;4.47;3.60;;;6.10;97.20;;;;;;1707654;29;20230;-81
2022/01/29 07:27:09;;;;;;;3.93;3.53;;;6.10;97.20;;;;;;1707335;29;20210;-81
2022/01/29 07:28:00;;;;;;;5.30;3.85;;;6.10;97.20;;;;;;1707286;29;20198;-80
2022/01/29 07:28:52;;;;;;;4.47;3.73;;;6.10;97.20;;;;;;1707386;29;20222;-80
2022/01/29 07:29:43;;;;;;;5.95;4.50;;;6.10;97.20;;;;;;1707664;29;20211;-81
2022/01/29 07:30:35;;;;;;;7.03;4.90;;;6.10;97.20;;;;;;1707710;29;20202;-81
2022/01/29 07:31:26;;;;;;;9.75;6.97;;;6.10;97.20;;;;;;1707612;28;20207;-80
2022/01/29 07:32:17;;;;;;;7.67;5.97;;;6.10;97.20;;;;;;1707605;29;20202;-81
2022/01/29 07:33:09;;;;;;;6.50;5.90;;;6.10;97.20;;;;;;1707443;29;20203;-81
2022/01/29 07:34:01;;;;;;;6.20;5.00;;;6.10;97.20;;;;;;1707611;29;20341;-81
2022/01/29 07:34:52;;;;;;;4.85;3.88;;;6.10;97.20;;;;;;1707405;28;20229;-81
2022/01/29 07:35:43;;;;;;;3.90;3.60;;;6.00;97.20;;;;;;1707425;29;20206;-80
2022/01/29 07:36:34;;;;;;;4.30;3.50;;;6.00;97.20;;;;;;1707554;29;20261;-81
2022/01/29 07:37:26;;;;;;;4.57;3.80;;;6.00;97.20;;;;;;1707519;29;20202;-81
2022/01/29 07:38:17;;;;;;;4.68;3.80;;;6.00;97.20;;;;;;1707268;28;20202;-81
2022/01/29 07:39:08;;;;;;;6.43;4.20;;;6.00;97.20;;;;;;1707291;29;20654;-80
2022/01/29 07:39:59;;;;;;;5.50;5.00;;;5.90;97.20;;;;;;1707264;29;20609;-80
2022/01/29 07:40:51;;;;;;;5.10;4.33;;;5.90;97.20;;;;;;1707526;29;20294;-81
2022/01/29 07:41:42;;;;;;;5.25;4.72;;;5.90;97.20;;;;;;1707589;29;20198;-81
2022/01/29 07:42:33;;;;;;;4.97;4.47;;;5.90;97.20;;;;;;1707575;29;20203;-81
2022/01/29 07:43:24;;;;;;;5.72;4.40;;;5.90;97.20;;;;;;1707411;29;20217;-81
2022/01/29 07:44:17;;;;;;;6.10;4.50;;;5.90;97.20;;;;;;1707513;29;20205;-81
2022/01/29 07:45:08;;;;;;;5.57;4.93;;;5.90;97.20;;;;;;1707726;29;20708;-81
2022/01/29 07:46:00;;;;;;;7.20;4.80;;;5.80;97.20;;;;;;1707591;28;20587;-81
2022/01/29 07:46:52;;;;;;;5.03;4.20;;;5.80;97.20;;;;;;1707575;29;20575;-81
2022/01/29 07:47:43;;;;;;;9.57;4.25;;;5.80;97.20;;;;;;1707171;29;20349;-81
2022/01/29 07:48:36;;;;;;;3.67;3.10;;;5.80;97.20;;;;;;1707281;29;20226;-81
2022/01/29 07:49:27;;;;;;;3.85;3.55;;;5.80;97.20;;;;;;1707529;29;20671;-82
2022/01/29 07:50:18;;;;;;;4.13;3.72;;;5.80;97.20;;;;;;1707504;29;20225;-80
2022/01/29 07:51:10;;;;;;;4.23;3.70;;;5.70;97.20;;;;;;1707652;29;20317;-82
2022/01/29 07:52:01;;;;;;;4.28;3.25;;;5.70;97.20;;;;;;1707603;29;20673;-81
2022/01/29 07:52:54;;;;;;;5.40;3.53;;;5.60;97.20;;;;;;1707512;28;20658;-81
2022/01/29 07:53:45;;;;;;;4.32;3.90;;;5.60;97.20;;;;;;1707531;29;20457;-82
2022/01/29 07:54:36;;;;;;;4.13;3.60;;;5.50;97.20;;;;;;1707012;28;20663;-81
2022/01/29 07:55:29;;;;;;;4.40;4.00;;;5.50;97.20;;;;;;1707581;29;20206;-81
2022/01/29 07:56:21;;;;;;;4.43;3.20;;;5.40;97.20;;;;;;1707482;29;20202;-81
2022/01/29 07:57:12;;;;;;;4.20;3.75;;;5.40;97.20;;;;;;1707552;29;20206;-80
2022/01/29 07:58:04;;;;;;;4.37;3.70;;;5.40;97.20;;;;;;1707186;29;20289;-81
2022/01/29 07:58:55;;;;;;;4.38;3.40;;;5.40;97.20;;;;;;1707443;29;20207;-81
2022/01/29 07:59:47;;;;;;;5.00;4.50;;;5.40;97.20;;;;;;1707612;29;20654;-81
2022/01/29 08:00:38;;;;;;;4.88;4.30;;;5.40;97.20;;;;;;1707698;29;20485;-81
2022/01/29 08:01:30;;;;;;;4.50;4.07;;;5.40;97.20;;;;;;1708224;29;20206;-80
2022/01/29 08:02:20;;;;;;;3.78;3.42;;;5.40;97.20;;;;;;1709502;29;20214;-81
2022/01/29 08:03:12;;;;;;;4.37;3.67;;;5.40;97.20;;;;;;1709529;29;20285;-81
2022/01/29 08:04:04;;;;;;;5.03;3.88;;;5.40;97.20;;;;;;1708255;29;20237;-81
2022/01/29 08:04:56;;;;;;;4.30;3.55;;;5.40;97.20;;;;;;1708140;28;20233;-81
2022/01/29 08:05:47;;;;;;;4.30;4.00;;;5.40;97.20;;;;;;1707999;29;20199;-81
2022/01/29 08:06:38;;;;;;;6.33;4.00;;;5.40;97.20;;;;;;1707984;29;20208;-81
2022/01/29 08:07:29;;;;;;;5.88;3.72;;;5.40;97.20;;;;;;1707928;29;20230;-81
2022/01/29 08:08:21;;;;;;;5.33;4.60;;;5.40;97.20;;;;;;1707528;29;20709;-81
2022/01/29 08:09:12;;;;;;;5.28;4.13;;;5.40;97.20;;;;;;1707763;29;20226;-81
2022/01/29 08:10:04;;;;;;;6.70;5.10;;;5.40;97.20;;;;;;1707923;29;20217;-81
2022/01/29 08:10:55;;;;;;;4.28;3.88;;;5.40;97.20;;;;;;1707983;29;20202;-81
2022/01/29 08:11:47;;;;;;;6.57;5.20;;;5.40;97.20;;;;;;1707986;29;20227;-81
2022/01/29 08:12:38;;;;;;;4.35;3.95;;;5.40;97.20;;;;;;1708181;29;20662;-80
2022/01/29 08:13:29;;;;;;;4.37;3.97;;;5.40;97.20;;;;;;1708053;29;20632;-81
2022/01/29 08:14:20;;;;;;;7.35;4.60;;;5.40;97.20;;;;;;1707989;29;20206;-81
2022/01/29 08:15:12;;;;;;;6.40;4.40;;;5.40;97.20;;;;;;1707973;28;20217;-81
2022/01/29 08:16:03;;;;;;;4.95;3.97;;;5.40;97.20;;;;;;1707806;29;20213;-81
2022/01/29 08:16:55;;;;;;;4.43;4.03;;;5.40;97.20;;;;;;1707667;29;20199;-81
2022/01/29 08:17:46;;;;;;;5.97;4.30;;;5.40;97.20;;;;;;1707703;29;20206;-81
2022/01/29 08:18:37;;;;;;;6.03;4.20;;;5.40;97.20;;;;;;1707678;29;20198;-81
2022/01/29 08:19:30;;;;;;;6.70;4.20;;;5.40;97.20;;;;;;1707696;29;20567;-81
2022/01/29 08:20:21;;;;;;;5.10;4.47;;;5.40;97.20;;;;;;1707783;29;20234;-81
2022/01/29 08:21:14;;;;;;;4.90;4.23;;;5.40;97.20;;;;;;1707526;28;20212;-81
2022/01/29 08:22:05;;;;;;;5.07;4.57;;;5.40;97.20;;;;;;1707891;29;20847;-81
2022/01/29 08:22:56;;;;;;;4.40;4.00;;;5.40;97.20;;;;;;1707807;29;20225;-81
2022/01/29 08:23:47;;;;;;;5.25;4.75;;;5.40;97.20;;;;;;1708326;29;20203;-83
2022/01/29 08:24:39;;;;;;;4.73;3.90;;;5.40;97.20;;;;;;1708585;29;20305;-81
2022/01/29 08:25:30;;;;;;;5.05;4.40;;;5.40;97.20;;;;;;1707816;29;20261;-80
2022/01/29 08:26:22;;;;;;;5.80;4.10;;;5.30;97.20;;;;;;1707795;28;20206;-81
2022/01/29 08:27:12;;;;;;;4.25;3.85;;;5.30;97.20;;;;;;1707858;29;20303;-81
2022/01/29 08:28:05;;;;;;;4.27;3.50;;;5.30;97.20;;;;;;1707438;29;20282;-81
2022/01/29 08:28:55;;;;;;;4.60;3.92;;;5.30;97.20;;;;;;1707519;29;20234;-80
2022/01/29 08:29:47;;;;;;;4.63;4.20;;;5.30;97.20;;;;;;1707597;29;20205;-81
2022/01/29 08:30:38;;;;;;;5.70;4.20;;;5.30;97.20;;;;;;1707840;29;20207;-81
2022/01/29 08:31:30;;;;;;;4.67;4.27;;;5.30;97.20;;;;;;1707600;29;20202;-79
2022/01/29 08:32:21;;;;;;;4.32;3.58;;;5.30;97.20;;;;;;1707901;29;20457;-80
2022/01/29 08:33:17;;;;;;;5.40;4.30;;;5.30;97.20;;;;;;1707380;29;20678;-80
2022/01/29 08:34:08;;;;;;;4.85;3.92;;;5.30;97.20;;;;;;1707961;28;20469;-81
2022/01/29 08:35:01;;;;;;;5.22;4.15;;;5.30;97.20;;;;;;1707855;29;20219;-81
2022/01/29 08:35:52;;;;;;;4.72;4.10;;;5.30;97.20;;;;;;1708775;29;20217;-80
2022/01/29 08:36:44;;;;;;;4.85;4.35;;;5.30;97.20;;;;;;1708589;29;20206;-81
2022/01/29 08:37:35;;;;;;;6.28;5.68;;;5.30;97.20;;;;;;1708580;29;20666;-79
2022/01/29 08:38:27;;;;;;;5.90;4.73;;;5.30;97.20;;;;;;1708476;29;20206;-80
2022/01/29 08:39:18;;;;;;;7.40;5.45;;;5.30;97.20;;;;;;1708795;28;20281;-80
2022/01/29 08:40:11;;;;;;;6.37;5.10;;;5.30;97.20;;;;;;1708959;29;20194;-82
2022/01/29 08:41:03;;;;;;;6.80;5.28;;;5.30;97.20;;;;;;1708476;28;20213;-83
2022/01/29 08:41:55;;;;;;;4.63;4.18;;;5.40;97.20;;;;;;1708513;29;20616;-83
2022/01/29 08:42:45;;;;;;;4.95;4.50;;;5.40;97.20;;;;;;1710151;29;20299;-83
2022/01/29 08:43:37;;;;;;;7.33;5.10;;;5.40;97.20;;;;;;1708861;29;20367;-82
2022/01/29 08:44:28;;;;;;;5.50;4.95;;;5.40;97.20;;;;;;1708476;29;20700;-83
2022/01/29 08:45:20;;;;;;;6.13;4.95;;;5.40;97.20;;;;;;1708452;29;20207;-81
2022/01/29 08:46:11;;;;;;;5.45;4.22;;;5.40;97.20;;;;;;1708574;29;20203;-81
2022/01/29 08:47:03;;;;;;;5.30;4.73;;;5.50;97.20;;;;;;1708687;29;20209;-82
2022/01/29 08:47:54;;;;;;;6.78;4.93;;;5.50;97.20;;;;;;1708211;29;20226;-83
2022/01/29 08:48:46;;;;;;;4.80;4.33;;;5.50;97.20;;;;;;1708237;29;20209;-82
2022/01/29 08:49:38;;;;;;;4.78;4.28;;;5.50;97.20;;;;;;1708516;29;20481;-84
2022/01/29 08:50:31;;;;;;;6.00;5.40;;;5.50;97.20;;;;;;1708440;29;20206;-84
2022/01/29 08:51:22;;;;;;;4.53;4.07;;;5.50;97.20;;;;;;1708540;29;20203;-82
2022/01/29 08:52:14;;;;;;;6.80;5.67;;;5.50;97.20;;;;;;1708353;29;20199;-83
2022/01/29 08:53:05;;;;;;;5.95;5.30;;;5.50;97.20;;;;;;1708490;29;20656;-82
2022/01/29 08:53:56;;;;;;;7.20;5.50;;;5.50;97.20;;;;;;1708476;29;20230;-82
2022/01/29 08:54:47;;;;;;;6.50;5.90;;;5.60;97.20;;;;;;1708416;29;20230;-81
2022/01/29 08:55:39;;;;;;;6.37;5.40;;;5.60;97.20;;;;;;1708289;29;20212;-84
2022/01/29 08:56:30;;;;;;;6.43;5.82;;;5.60;97.20;;;;;;1701889;29;20946;-83
2022/01/29 08:57:23;;;;;;;6.65;5.70;;;5.60;97.20;;;;;;1707611;29;20202;-84
2022/01/29 08:58:14;;;;;;;9.27;5.70;;;5.60;97.20;;;;;;1708236;29;20236;-82
2022/01/29 08:59:06;;;;;;;7.43;5.55;;;5.70;97.20;;;;;;1708255;29;20194;-85
2022/01/29 08:59:57;;;;;;;6.18;4.93;;;5.70;97.20;;;;;;1708678;29;20234;-82
2022/01/29 09:00:49;;;;;;;5.57;5.07;;;5.80;97.20;;;;;;1708371;29;20616;-83
2022/01/29 09:01:40;;;;;;;6.45;5.38;;;5.80;97.20;;;;;;1708601;29;20265;-83
2022/01/29 09:02:31;;;;;;;6.47;5.20;;;5.80;97.20;;;;;;1708266;29;20206;-83
2022/01/29 09:03:23;;;;;;;6.18;5.50;;;5.80;97.20;;;;;;1708399;29;20457;-82
2022/01/29 09:04:15;;;;;;;9.18;5.28;;;5.80;97.20;;;;;;1708195;29;20249;-82
2022/01/29 09:05:06;;;;;;;7.13;6.15;;;5.80;97.20;;;;;;1708240;28;20222;-83
2022/01/29 09:06:00;;;;;;;6.68;5.43;;;5.80;97.20;;;;;;1708278;29;20277;-83
2022/01/29 09:06:51;;;;;;;6.28;5.68;;;5.90;97.20;;;;;;1708365;29;20729;-83
2022/01/29 09:07:43;;;;;;;5.63;5.03;;;5.90;97.20;;;;;;1708087;29;20725;-82
2022/01/29 09:08:34;;;;;;;5.60;5.00;;;5.90;97.20;;;;;;1708218;29;20504;-83
2022/01/29 09:09:26;;;;;;;7.35;6.35;;;5.90;97.20;;;;;;1708126;29;20230;-83
2022/01/29 09:10:17;;;;;;;5.15;4.65;;;5.90;97.20;;;;;;1708248;29;20242;-83
2022/01/29 09:11:09;;;;;;;6.73;5.57;;;5.90;97.20;;;;;;1708261;29;20198;-81
2022/01/29 09:12:01;;;;;;;5.70;5.20;;;5.90;97.20;;;;;;1708074;29;20859;-81
2022/01/29 09:12:53;;;;;;;5.05;4.55;;;6.00;97.20;;;;;;1708072;28;20617;-81
2022/01/29 09:13:44;;;;;;;6.18;4.90;;;6.00;97.20;;;;;;1706389;29;20223;-80
2022/01/29 09:14:36;;;;;;;6.83;5.60;;;6.00;97.20;;;;;;1703218;29;20199;-83
2022/01/29 09:15:27;;;;;;;6.22;5.63;;;6.00;97.20;;;;;;1706525;29;20454;-81
2022/01/29 09:16:18;;;;;;;6.30;5.70;;;6.00;97.20;;;;;;1708341;29;20205;-82
2022/01/29 09:17:09;;;;;;;6.38;5.28;;;6.00;97.20;;;;;;1708330;29;20242;-82
2022/01/29 09:18:01;;;;;;;5.73;5.07;;;6.00;97.20;;;;;;1707652;29;20195;-79
2022/01/29 09:18:52;;;;;;;6.40;5.03;;;6.00;97.20;;;;;;1708199;29;20445;-81
2022/01/29 09:19:44;;;;;;;6.40;5.40;;;6.00;97.20;;;;;;1708323;29;20312;-83
2022/01/29 09:20:34;;;;;;;6.80;5.43;;;6.00;97.20;;;;;;1708426;29;20601;-83
2022/01/29 09:21:27;;;;;;;5.37;4.90;;;6.00;97.20;;;;;;1708463;29;20646;-83
2022/01/29 09:22:18;;;;;;;6.93;5.53;;;6.10;97.20;;;;;;1708307;29;20696;-82
2022/01/29 09:23:10;;;;;;;5.30;4.80;;;6.10;97.20;;;;;;1708354;29;20210;-82
2022/01/29 09:24:01;;;;;;;6.20;5.60;;;6.10;97.20;;;;;;1708343;29;20599;-81
2022/01/29 09:24:52;;;;;;;6.63;5.67;;;6.10;97.20;;;;;;1707721;28;20241;-81
2022/01/29 09:25:43;;;;;;;6.10;5.18;;;6.10;97.20;;;;;;1708292;29;20210;-81
2022/01/29 09:26:35;;;;;;;5.93;5.30;;;6.10;97.20;;;;;;1708383;29;20198;-83
2022/01/29 09:27:26;;;;;;;5.50;4.90;;;6.20;97.20;;;;;;1711722;29;20822;-82
2022/01/29 09:28:18;;;;;;;5.80;5.30;;;6.20;97.20;;;;;;1711986;29;20262;-83
2022/01/29 09:29:08;;;;;;;6.07;5.28;;;6.20;97.20;;;;;;1708882;29;20214;-82
2022/01/29 09:30:00;;;;;;;6.80;5.77;;;6.30;97.20;;;;;;1708370;29;20216;-82
2022/01/29 09:30:52;;;;;;;5.80;5.18;;;6.30;97.20;;;;;;1702081;28;20202;-83
2022/01/29 09:31:44;;;;;;;5.65;5.00;;;6.30;97.20;;;;;;1706343;28;20326;-83
2022/01/29 09:32:35;;;;;;;5.93;5.10;;;6.30;97.20;;;;;;1708806;28;20206;-82
2022/01/29 09:33:29;;;;;;;7.18;5.45;;;6.30;97.20;;;;;;1712213;28;20225;-82
2022/01/29 09:34:20;;;;;;;7.40;5.43;;;6.30;97.20;;;;;;1713861;28;20217;-82
2022/01/29 09:35:11;;;;;;;5.60;4.90;;;6.30;97.20;;;;;;1710930;28;20709;-81
2022/01/29 09:36:03;;;;;;;6.10;5.50;;;6.30;97.20;;;;;;1711832;28;20194;-82
2022/01/29 09:36:56;;;;;;;6.78;5.00;;;6.30;97.20;;;;;;1715016;28;20802;-82
2022/01/29 09:37:47;;;;;;;6.78;5.57;;;6.30;97.20;;;;;;1709967;28;20310;-83
2022/01/29 09:38:38;;;;;;;6.28;5.50;;;6.40;97.20;;;;;;1703728;29;20187;-83
2022/01/29 09:39:29;;;;;;;5.60;5.10;;;6.40;97.20;;;;;;1708629;29;20209;-83
2022/01/29 09:40:21;;;;;;;5.70;4.67;;;6.50;97.20;;;;;;1708556;29;20647;-82
2022/01/29 09:41:13;;;;;;;5.80;4.88;;;6.60;97.20;;;;;;1708447;29;20214;-83
2022/01/29 09:42:06;;;;;;;6.20;5.60;;;6.70;97.20;;;;;;1707981;29;20213;-83
2022/01/29 09:42:59;;;;;;;6.20;5.60;;;6.80;97.20;;;;;;1708010;29;20209;-81
2022/01/29 09:43:52;;;;;;;5.28;4.78;;;6.80;97.20;;;;;;1708262;29;20224;-84
2022/01/29 09:44:45;;;;;;;5.80;5.30;;;6.80;97.20;;;;;;1708551;28;20237;-82
2022/01/29 09:45:38;;;;;;;6.70;5.70;;;6.90;97.20;;;;;;1708135;28;20263;-82
2022/01/29 09:46:30;;;;;;;5.30;4.80;;;6.90;97.20;;;;;;1708261;29;20666;-83
2022/01/29 09:47:23;;;;;;;4.78;4.15;;;6.90;97.20;;;;;;1708106;29;20225;-83
2022/01/29 09:48:15;;;;;;;6.90;6.22;;;6.90;97.20;;;;;;1707685;29;20345;-83
2022/01/29 09:49:06;;;;;;;7.20;5.50;;;6.90;97.20;;;;;;1708113;29;20210;-83
2022/01/29 09:49:58;;;;;;;5.82;5.30;;;6.80;97.20;;;;;;1708182;29;20195;-83
2022/01/29 09:50:50;;;;;;;6.10;5.32;;;6.80;97.20;;;;;;1708277;29;20199;-82
2022/01/29 09:51:42;;;;;;;5.80;5.15;;;6.80;97.20;;;;;;1708305;29;20285;-81
2022/01/29 09:52:35;;;;;;;5.97;5.47;;;6.80;97.20;;;;;;1708221;29;20202;-83
2022/01/29 09:53:26;;;;;;;8.60;6.13;;;6.80;97.20;;;;;;1707621;29;20629;-83
2022/01/29 09:54:17;;;;;;;7.47;6.13;;;6.80;97.20;;;;;;1707898;28;20195;-83
2022/01/29 09:55:10;;;;;;;6.53;5.70;;;6.80;97.20;;;;;;1708276;28;20210;-83
2022/01/29 09:56:03;;;;;;;5.85;5.35;;;6.70;97.20;;;;;;1708352;29;20210;-84
2022/01/29 09:56:54;;;;;;;8.73;6.07;;;6.70;97.20;;;;;;1708301;28;20232;-81
2022/01/29 09:57:45;;;;;;;6.07;5.45;;;6.70;97.20;;;;;;1708272;29;20698;-83
2022/01/29 09:58:37;;;;;;;6.93;6.30;;;6.70;97.20;;;;;;1707659;28;20571;-83
2022/01/29 09:59:28;;;;;;;6.88;6.03;;;6.70;97.20;;;;;;1708039;28;20203;-83
2022/01/29 10:00:21;;;;;;;6.90;5.87;;;6.70;97.20;;;;;;1708200;28;20213;-84
2022/01/29 10:01:12;;;;;;;6.80;5.70;;;6.60;97.20;;;;;;1708429;28;20211;-83
2022/01/29 10:02:13;;;;;;;6.68;6.00;;;6.60;97.20;;;;;;1708358;29;20573;-84
2022/01/29 10:03:16;;;;;;;6.90;6.15;;;6.60;97.20;;;;;;1708326;29;20693;-83
2022/01/29 10:04:07;;;;;;;9.23;6.03;;;6.60;97.20;;;;;;1707968;28;20217;-83
2022/01/29 10:04:59;;;;;;;7.30;6.60;;;6.60;97.20;;;;;;1707620;29;20711;-83
2022/01/29 10:05:51;;;;;;;6.30;5.70;;;6.70;97.20;;;;;;1706971;29;20207;-82
2022/01/29 10:06:46;;;;;;;6.78;5.95;;;6.80;97.20;;;;;;1708173;29;20285;-84
2022/01/29 10:07:38;;;;;;;6.15;5.55;;;6.80;97.20;;;;;;1707874;29;20262;-84
2022/01/29 10:08:41;;;;;;;6.25;5.65;;;7.00;97.20;;;;;;1708100;28;20206;-83
2022/01/29 10:09:32;;;;;;;6.50;5.90;;;7.20;97.20;;;;;;1707640;29;20231;-83
2022/01/29 10:10:24;;;;;;;5.65;5.00;;;7.40;97.20;;;;;;1707875;29;20210;-83
2022/01/29 10:11:19;;;;;;;5.65;5.15;;;7.50;97.20;;;;;;1708026;29;20210;-84
2022/01/29 10:12:23;;;;;;;6.28;5.68;;;7.70;97.20;;;;;;1708039;28;20206;-83
2022/01/29 10:13:24;;;;;;;5.65;5.10;;;7.80;97.20;;;;;;1708057;29;20230;-84
2022/01/29 10:14:16;;;;;;;6.65;5.55;;;7.90;97.20;;;;;;1707722;28;20215;-82
2022/01/29 10:15:08;;;;;;;5.57;5.03;;;8.00;97.20;;;;;;1707469;29;20276;-82
2022/01/29 10:16:09;;;;;;;8.18;6.05;;;8.10;97.20;;;;;;1707842;29;20222;-83
2022/01/29 10:17:00;;;;;;;6.50;5.68;;;8.20;97.20;;;;;;1708153;28;20206;-83
2022/01/29 10:17:53;;;;;;;5.57;5.00;;;8.30;97.20;;;;;;1707605;29;20229;-82
2022/01/29 10:18:47;;;;;;;6.22;5.22;;;8.30;97.20;;;;;;1707587;29;20599;-82
2022/01/29 10:19:39;;;;;;;5.50;4.38;;;8.40;97.20;;;;;;1707500;29;20705;-82
2022/01/29 10:20:29;;;;;;;6.28;5.50;;;8.30;97.20;;;;;;1707097;29;20215;-83
2022/01/29 10:21:24;;;;;;;5.47;4.97;;;8.20;97.20;;;;;;1707308;29;20213;-82
2022/01/29 10:22:21;;;;;;;6.82;6.13;;;8.10;97.20;;;;;;1707548;29;20207;-83
2022/01/29 10:23:14;;;;;;;5.70;5.10;;;8.00;97.20;;;;;;1707376;28;20252;-82
2022/01/29 10:24:08;;;;;;;6.30;5.68;;;7.90;97.20;;;;;;1707673;29;20206;-83
2022/01/29 10:24:59;;;;;;;8.48;5.80;;;7.90;97.20;;;;;;1707316;28;20222;-82
2022/01/29 10:25:51;;;;;;;7.60;5.50;;;7.80;97.20;;;;;;1707112;29;20191;-83
2022/01/29 10:26:44;;;;;;;6.22;5.63;;;7.90;97.20;;;;;;1707213;29;20199;-82
2022/01/29 10:27:35;;;;;;;7.00;4.90;;;7.90;97.20;;;;;;1707408;29;20237;-82
2022/01/29 10:28:27;;;;;;;8.60;5.00;;;8.00;97.20;;;;;;1707192;29;20209;-82
2022/01/29 10:29:20;;;;;;;5.97;5.10;;;8.10;97.20;;;;;;1707401;29;20446;-82
2022/01/29 10:30:12;;;;;;;7.90;5.53;;;8.20;97.20;;;;;;1707443;29;20230;-83
2022/01/29 10:31:05;;;;;;;8.00;4.70;;;8.40;97.20;;;;;;1707416;29;20807;-83
2022/01/29 10:31:59;;;;;;;5.47;4.72;;;8.50;97.20;;;;;;1707259;29;20217;-83
2022/01/29 10:32:51;;;;;;;9.25;5.03;;;8.60;97.20;;;;;;1707426;29;20214;-82
2022/01/29 10:33:43;;;;;;;5.55;4.70;;;8.60;97.20;;;;;;1707437;29;20235;-81